Weather at Hoblit Farms Airport

Public forecast

Using degrees Fahrenheit for public forecast. Weather courtesy of forecast.io.

Closest aviation weather report (METAR) to Hoblit Farms Airport

Closest report is Logan County Airport, 5.9 nm (10.8 km) SW. Retrieved 2020/10/24 22:35 UTC (7 minutes ago):

KAAA 242235Z AUTO 05008KT 10SM OVC036 08/00 A3017 RMK AO2 T00771003

Closest aviation forecast (TAF) to Hoblit Farms Airport

Closest forecast is Central Illinois Regional Airport at Bloomington-Normal, 21.2 nm (39.3 km) NE. Retrieved 2020/10/24 18:30 UTC (4 hours ago):

TAF KBMI 241729Z 2418/2518 04009KT P6SM BKN030 TEMPO 2418/2422 04010G18KT SCT035 FM242200 05009KT P6SM SCT040 FM250600 05010KT P6SM OVC060